Time;durP1;ratioP1;P1;durP2;ratioP2;P2;SDS_P1;SDS_P2;PMS_P1;PMS_P2;Temp;Humidity;BMP_temperature;BMP_pressure;BME280_temperature;BME280_humidity;BME280_pressure;Samples;Min_cycle;Max_cycle;Signal;HPM_P1;HPM_P2
2022/03/24 00:01:53;;;;;;;28.45;12.88;;;;;;;;;;4995119;28;20026;-51
2022/03/24 00:04:19;;;;;;;31.20;14.95;;;;;;;;;;4994783;28;20153;-51
2022/03/24 00:06:45;;;;;;;32.22;13.15;;;;;;;;;;4994994;28;20028;-52
2022/03/24 00:09:11;;;;;;;37.78;15.75;;;;;;;;;;4994800;28;20459;-55
2022/03/24 00:11:38;;;;;;;32.65;13.77;;;;;;;;;;4994267;28;20571;-58
2022/03/24 00:14:04;;;;;;;31.13;13.20;;;;;;;;;;4994653;28;20018;-54
2022/03/24 00:16:31;;;;;;;24.55;11.05;;;;;;;;;;4995663;28;20034;-55
2022/03/24 00:18:57;;;;;;;27.58;11.93;;;;;;;;;;4994855;28;20479;-51
2022/03/24 00:21:24;;;;;;;27.88;12.07;;;;;;;;;;4994530;28;20460;-55
2022/03/24 00:23:50;;;;;;;27.90;13.73;;;;;;;;;;4993879;28;20026;-52
2022/03/24 00:26:16;;;;;;;28.73;11.32;;;;;;;;;;4994474;28;20109;-52
2022/03/24 00:28:43;;;;;;;24.83;11.68;;;;;;;;;;4994732;28;20080;-55
2022/03/24 00:31:09;;;;;;;23.40;10.80;;;;;;;;;;4994223;28;20022;-53
2022/03/24 00:33:38;;;;;;;22.42;10.02;;;;;;;;;;4994654;28;20026;-53
2022/03/24 00:36:04;;;;;;;24.73;10.95;;;;;;;;;;4994843;28;20023;-53
2022/03/24 00:38:31;;;;;;;27.17;11.30;;;;;;;;;;4994225;28;20018;-51
2022/03/24 00:40:57;;;;;;;28.27;10.30;;;;;;;;;;4994883;28;20057;-53
2022/03/24 00:43:23;;;;;;;28.08;9.75;;;;;;;;;;4994516;28;20026;-52
2022/03/24 00:45:52;;;;;;;21.73;9.07;;;;;;;;;;4993944;28;20082;-53
2022/03/24 00:48:19;;;;;;;22.73;10.02;;;;;;;;;;4994550;28;20372;-54
2022/03/24 00:50:45;;;;;;;24.67;10.23;;;;;;;;;;4994217;28;20160;-50
2022/03/24 00:53:11;;;;;;;22.42;10.10;;;;;;;;;;4993642;28;20450;-53
2022/03/24 00:55:38;;;;;;;27.20;9.80;;;;;;;;;;4994373;28;20052;-53
2022/03/24 00:58:04;;;;;;;30.83;11.63;;;;;;;;;;4994398;28;20502;-52
2022/03/24 01:00:31;;;;;;;47.17;18.00;;;;;;;;;;4993751;28;20027;-52
2022/03/24 01:02:58;;;;;;;30.83;14.90;;;;;;;;;;4994613;28;20030;-52
2022/03/24 01:05:27;;;;;;;37.92;16.17;;;;;;;;;;4993959;28;20033;-52
2022/03/24 01:07:54;;;;;;;36.90;16.73;;;;;;;;;;4994049;28;20018;-52
2022/03/24 01:10:20;;;;;;;42.15;17.63;;;;;;;;;;4993878;28;20484;-54
2022/03/24 01:12:48;;;;;;;30.48;16.35;;;;;;;;;;4993563;28;20038;-51
2022/03/24 01:15:16;;;;;;;37.40;17.73;;;;;;;;;;4994375;28;20153;-54
2022/03/24 01:17:42;;;;;;;33.60;15.63;;;;;;;;;;4993916;28;20121;-53
2022/03/24 01:20:09;;;;;;;23.23;11.90;;;;;;;;;;4993879;28;20149;-51
2022/03/24 01:22:36;;;;;;;22.63;11.18;;;;;;;;;;4993840;28;20471;-51
2022/03/24 01:25:03;;;;;;;27.40;11.25;;;;;;;;;;4993826;28;20027;-51
2022/03/24 01:27:29;;;;;;;25.35;11.98;;;;;;;;;;4993763;28;20023;-53
2022/03/24 01:29:59;;;;;;;26.08;11.90;;;;;;;;;;4993987;28;20069;-53
2022/03/24 01:32:29;;;;;;;28.35;12.02;;;;;;;;;;4993966;28;20058;-52
2022/03/24 01:34:55;;;;;;;37.33;17.02;;;;;;;;;;4993851;28;20023;-52
2022/03/24 01:37:25;;;;;;;35.72;16.65;;;;;;;;;;4993410;28;20018;-52
2022/03/24 01:39:52;;;;;;;35.72;14.77;;;;;;;;;;4993843;28;20034;-52
2022/03/24 01:42:19;;;;;;;30.08;12.65;;;;;;;;;;4993414;28;20034;-52
2022/03/24 01:44:46;;;;;;;27.45;12.48;;;;;;;;;;4994203;28;20076;-54
2022/03/24 01:47:13;;;;;;;27.70;13.63;;;;;;;;;;4993888;28;20421;-50
2022/03/24 01:49:40;;;;;;;41.80;19.42;;;;;;;;;;4993305;28;20497;-55
2022/03/24 01:52:10;;;;;;;46.03;23.05;;;;;;;;;;4993786;28;20041;-54
2022/03/24 01:54:38;;;;;;;40.40;20.55;;;;;;;;;;4993547;28;20054;-53
2022/03/24 01:57:08;;;;;;;40.22;18.95;;;;;;;;;;4993731;28;20053;-53
2022/03/24 01:59:36;;;;;;;44.10;19.40;;;;;;;;;;4993448;28;20038;-53
2022/03/24 02:02:03;;;;;;;47.63;20.02;;;;;;;;;;4993139;28;20454;-51
2022/03/24 02:04:30;;;;;;;42.10;18.85;;;;;;;;;;4996077;28;20383;-53
2022/03/24 02:06:56;;;;;;;40.45;17.67;;;;;;;;;;4997195;28;20022;-50
2022/03/24 02:09:23;;;;;;;40.25;17.35;;;;;;;;;;4996933;28;20031;-53
2022/03/24 02:11:49;;;;;;;37.08;16.77;;;;;;;;;;4997073;28;20034;-52
2022/03/24 02:14:15;;;;;;;39.45;17.17;;;;;;;;;;4997211;28;20026;-53
2022/03/24 02:16:42;;;;;;;34.60;15.88;;;;;;;;;;4996525;28;20027;-50
2022/03/24 02:19:10;;;;;;;39.55;17.15;;;;;;;;;;4997276;28;20068;-51
2022/03/24 02:21:38;;;;;;;40.30;17.77;;;;;;;;;;4997013;28;20022;-52
2022/03/24 02:24:04;;;;;;;41.97;18.77;;;;;;;;;;4996650;28;20023;-50
2022/03/24 02:26:31;;;;;;;38.13;16.80;;;;;;;;;;4996937;28;20063;-53
2022/03/24 02:28:57;;;;;;;38.40;18.67;;;;;;;;;;4996873;28;20452;-52
2022/03/24 02:31:24;;;;;;;41.90;17.98;;;;;;;;;;4996170;28;20031;-53
2022/03/24 02:34:37;;;;;;;34.10;17.50;;;;;;;;;;4996432;28;20034;-56
2022/03/24 02:36:40;;;;;;;44.53;17.85;;;;;;;;;;4995979;28;20034;-52
2022/03/24 02:39:06;;;;;;;41.70;19.15;;;;;;;;;;4996922;28;20080;-52
2022/03/24 02:41:33;;;;;;;38.45;18.30;;;;;;;;;;4996629;28;20034;-52
2022/03/24 02:43:59;;;;;;;38.00;15.50;;;;;;;;;;4997060;28;20042;-54
2022/03/24 02:46:26;;;;;;;31.23;14.10;;;;;;;;;;4996205;28;20022;-54
2022/03/24 02:48:52;;;;;;;34.22;15.35;;;;;;;;;;4996486;28;20034;-51
2022/03/24 02:51:18;;;;;;;34.67;14.40;;;;;;;;;;4995689;28;20033;-51
2022/03/24 02:53:44;;;;;;;34.70;15.52;;;;;;;;;;4996411;28;20094;-50
2022/03/24 02:56:10;;;;;;;35.80;15.52;;;;;;;;;;4996199;28;20480;-50
2022/03/24 02:58:37;;;;;;;32.80;15.15;;;;;;;;;;4996080;28;20494;-52
2022/03/24 03:01:03;;;;;;;33.42;15.95;;;;;;;;;;4995998;28;20460;-54
2022/03/24 03:03:29;;;;;;;29.15;12.80;;;;;;;;;;4996025;28;20080;-51
2022/03/24 03:05:57;;;;;;;29.52;12.80;;;;;;;;;;4995853;28;20022;-54
2022/03/24 03:08:23;;;;;;;27.35;11.85;;;;;;;;;;4996415;28;20018;-51
2022/03/24 03:10:49;;;;;;;37.20;12.50;;;;;;;;;;4995862;28;20023;-53
2022/03/24 03:13:15;;;;;;;25.67;10.98;;;;;;;;;;4995503;28;20379;-50
2022/03/24 03:15:41;;;;;;;21.88;10.23;;;;;;;;;;4995300;28;20525;-51
2022/03/24 03:18:07;;;;;;;25.92;10.27;;;;;;;;;;4995963;28;20476;-52
2022/03/24 03:20:34;;;;;;;20.67;9.73;;;;;;;;;;4995601;28;20571;-55
2022/03/24 03:23:03;;;;;;;20.55;9.43;;;;;;;;;;4995873;28;20026;-52
2022/03/24 03:25:30;;;;;;;22.10;9.32;;;;;;;;;;4995719;28;20545;-51
2022/03/24 03:27:56;;;;;;;23.90;9.88;;;;;;;;;;4995495;28;20030;-52
2022/03/24 03:30:22;;;;;;;18.08;8.85;;;;;;;;;;4995473;28;20019;-53
2022/03/24 03:32:48;;;;;;;28.33;8.75;;;;;;;;;;4995459;28;20121;-53
2022/03/24 03:35:15;;;;;;;27.52;10.43;;;;;;;;;;4995617;28;20019;-53
2022/03/24 03:37:41;;;;;;;26.20;10.40;;;;;;;;;;4995492;28;20049;-49
2022/03/24 03:40:07;;;;;;;27.88;10.75;;;;;;;;;;4995206;28;20494;-52
2022/03/24 03:42:34;;;;;;;22.88;10.48;;;;;;;;;;4995818;28;20364;-55
2022/03/24 03:45:01;;;;;;;21.02;8.20;;;;;;;;;;4995565;28;20105;-50
2022/03/24 03:47:27;;;;;;;22.25;8.55;;;;;;;;;;4995068;28;20030;-52
2022/03/24 03:49:54;;;;;;;21.13;7.95;;;;;;;;;;4995326;28;20027;-53
2022/03/24 03:52:20;;;;;;;21.00;8.40;;;;;;;;;;4995246;28;20034;-54
2022/03/24 03:54:47;;;;;;;44.80;16.75;;;;;;;;;;4994663;28;20023;-54
2022/03/24 03:57:13;;;;;;;45.55;20.25;;;;;;;;;;4995059;28;20109;-52
2022/03/24 03:59:40;;;;;;;47.45;18.75;;;;;;;;;;4995137;28;20030;-51
2022/03/24 04:02:06;;;;;;;41.78;17.73;;;;;;;;;;4994925;28;20422;-51
2022/03/24 04:04:32;;;;;;;41.35;17.73;;;;;;;;;;4995188;28;20022;-52
2022/03/24 04:06:58;;;;;;;43.42;20.27;;;;;;;;;;4995672;28;20379;-49
2022/03/24 04:09:24;;;;;;;38.17;18.60;;;;;;;;;;4994697;28;20022;-52
2022/03/24 04:11:50;;;;;;;42.40;18.70;;;;;;;;;;4995259;28;20030;-52
2022/03/24 04:14:17;;;;;;;45.83;18.58;;;;;;;;;;4995229;28;20027;-56
2022/03/24 04:16:43;;;;;;;45.40;21.73;;;;;;;;;;4994351;28;20076;-52
2022/03/24 04:19:09;;;;;;;48.00;22.77;;;;;;;;;;4994886;28;20022;-53
2022/03/24 04:21:35;;;;;;;50.58;23.73;;;;;;;;;;4994467;28;20092;-56
2022/03/24 04:24:03;;;;;;;50.05;23.80;;;;;;;;;;4994972;28;20026;-50
2022/03/24 04:26:29;;;;;;;50.45;24.52;;;;;;;;;;4993021;28;20023;-53
2022/03/24 04:28:56;;;;;;;48.65;23.70;;;;;;;;;;4993627;28;20077;-52
2022/03/24 04:31:22;;;;;;;50.72;23.23;;;;;;;;;;4994496;28;20026;-51
2022/03/24 04:33:49;;;;;;;52.83;23.48;;;;;;;;;;4994263;28;20469;-48
2022/03/24 04:36:16;;;;;;;56.08;23.45;;;;;;;;;;4994265;28;20022;-51
2022/03/24 04:38:42;;;;;;;43.83;23.27;;;;;;;;;;4994780;28;20031;-52
2022/03/24 04:41:08;;;;;;;51.30;22.98;;;;;;;;;;4994559;28;20113;-49
2022/03/24 04:43:35;;;;;;;44.20;19.90;;;;;;;;;;4994014;28;20026;-48
2022/03/24 04:46:01;;;;;;;49.13;19.35;;;;;;;;;;4994426;28;20029;-52
2022/03/24 04:48:27;;;;;;;43.63;18.88;;;;;;;;;;4994409;28;20034;-50
2022/03/24 04:50:53;;;;;;;47.38;19.55;;;;;;;;;;4993819;28;20027;-52
2022/03/24 04:53:20;;;;;;;44.50;20.67;;;;;;;;;;4994100;28;20053;-50
2022/03/24 04:55:47;;;;;;;44.40;19.50;;;;;;;;;;4994214;28;20034;-49
2022/03/24 04:58:13;;;;;;;40.15;19.80;;;;;;;;;;4993529;28;20079;-50
2022/03/24 05:00:39;;;;;;;41.35;19.58;;;;;;;;;;4993812;28;20038;-50
2022/03/24 05:03:06;;;;;;;47.97;21.75;;;;;;;;;;4993855;28;20109;-55
2022/03/24 05:05:32;;;;;;;53.28;23.15;;;;;;;;;;4993969;28;20081;-52
2022/03/24 05:07:58;;;;;;;56.22;24.38;;;;;;;;;;4993946;28;20019;-55
2022/03/24 05:10:24;;;;;;;45.75;23.63;;;;;;;;;;4994072;28;20527;-53
2022/03/24 05:12:50;;;;;;;45.20;22.60;;;;;;;;;;4993454;28;20494;-53
2022/03/24 05:15:35;;;;;;;45.35;22.27;;;;;;;;;;4994021;28;20097;-57
2022/03/24 05:18:38;;;;;;;42.20;20.45;;;;;;;;;;4992649;28;20015;-54
2022/03/24 05:21:08;;;;;;;53.50;22.15;;;;;;;;;;4992964;28;20022;-56
2022/03/24 05:23:34;;;;;;;51.10;23.38;;;;;;;;;;4993026;28;20038;-57
2022/03/24 05:26:01;;;;;;;51.13;23.27;;;;;;;;;;4993705;28;20042;-56
2022/03/24 05:28:27;;;;;;;53.97;27.35;;;;;;;;;;4993790;28;20092;-56
2022/03/24 05:30:53;;;;;;;45.05;21.90;;;;;;;;;;4992803;28;20379;-53
2022/03/24 05:33:19;;;;;;;49.95;23.42;;;;;;;;;;4993583;28;20113;-49
2022/03/24 05:35:46;;;;;;;40.53;21.20;;;;;;;;;;4993015;28;20476;-53
2022/03/24 05:38:12;;;;;;;43.70;20.73;;;;;;;;;;4995467;28;20029;-49
2022/03/24 05:40:40;;;;;;;43.13;20.08;;;;;;;;;;4997394;28;20533;-53
2022/03/24 05:43:06;;;;;;;42.47;20.63;;;;;;;;;;4997734;28;20118;-52
2022/03/24 05:45:32;;;;;;;47.03;21.92;;;;;;;;;;4997891;28;20352;-54
2022/03/24 05:47:59;;;;;;;47.13;21.02;;;;;;;;;;4997667;28;20460;-51
2022/03/24 05:50:25;;;;;;;53.50;22.52;;;;;;;;;;4997156;28;20029;-53
2022/03/24 05:52:52;;;;;;;42.92;21.45;;;;;;;;;;4996839;28;20196;-52
2022/03/24 05:55:18;;;;;;;45.25;21.30;;;;;;;;;;4997131;28;20026;-53
2022/03/24 05:57:44;;;;;;;45.88;21.63;;;;;;;;;;4997657;28;20057;-52
2022/03/24 06:00:11;;;;;;;44.40;22.30;;;;;;;;;;4997413;28;20026;-51
2022/03/24 06:02:37;;;;;;;51.15;23.80;;;;;;;;;;4996813;28;20147;-54
2022/03/24 06:05:05;;;;;;;48.30;20.80;;;;;;;;;;4996924;28;20080;-52
2022/03/24 06:07:33;;;;;;;56.10;22.55;;;;;;;;;;4996653;28;20034;-55
2022/03/24 06:09:59;;;;;;;46.15;21.40;;;;;;;;;;4996874;28;20022;-54
2022/03/24 06:12:26;;;;;;;41.35;20.75;;;;;;;;;;4997141;28;20030;-52
2022/03/24 06:14:52;;;;;;;47.63;22.27;;;;;;;;;;4994801;28;20037;-54
2022/03/24 06:17:21;;;;;;;56.65;26.00;;;;;;;;;;4996756;28;20033;-52
2022/03/24 06:19:47;;;;;;;49.42;25.77;;;;;;;;;;4996967;28;20014;-50
2022/03/24 06:22:14;;;;;;;53.47;25.23;;;;;;;;;;4996415;28;20030;-52
2022/03/24 06:24:40;;;;;;;59.00;26.67;;;;;;;;;;4996611;28;20033;-53
2022/03/24 06:27:07;;;;;;;59.55;28.05;;;;;;;;;;4996558;28;20026;-54
2022/03/24 06:29:33;;;;;;;59.88;29.13;;;;;;;;;;4996385;28;20026;-53
2022/03/24 06:31:59;;;;;;;62.13;30.65;;;;;;;;;;4996827;28;20044;-51
2022/03/24 06:34:25;;;;;;;63.10;29.05;;;;;;;;;;4996818;28;20033;-53
2022/03/24 06:36:51;;;;;;;63.75;30.02;;;;;;;;;;4996435;28;20030;-55
2022/03/24 06:39:18;;;;;;;66.13;29.50;;;;;;;;;;4996441;28;20029;-55
2022/03/24 06:41:44;;;;;;;59.90;32.13;;;;;;;;;;4996296;28;20034;-54
2022/03/24 06:44:11;;;;;;;75.55;35.28;;;;;;;;;;4996282;28;20057;-55
2022/03/24 06:46:38;;;;;;;73.15;36.85;;;;;;;;;;4996184;28;20028;-52
2022/03/24 06:49:05;;;;;;;64.53;34.20;;;;;;;;;;4993769;28;20037;-51
2022/03/24 06:51:31;;;;;;;63.08;33.50;;;;;;;;;;4995117;28;20463;-49
2022/03/24 06:53:58;;;;;;;57.33;28.55;;;;;;;;;;4995839;28;20033;-55
2022/03/24 06:56:24;;;;;;;57.42;26.23;;;;;;;;;;4995673;28;20022;-53
2022/03/24 06:58:51;;;;;;;53.08;26.65;;;;;;;;;;4996375;28;20065;-54
2022/03/24 07:01:18;;;;;;;53.72;25.52;;;;;;;;;;4996535;28;20031;-54
2022/03/24 07:03:44;;;;;;;49.13;24.65;;;;;;;;;;4994676;28;20041;-51
2022/03/24 07:06:10;;;;;;;57.17;25.25;;;;;;;;;;4995077;28;20036;-53
2022/03/24 07:08:36;;;;;;;54.22;23.77;;;;;;;;;;4995365;28;20018;-53
2022/03/24 07:11:09;;;;;;;41.00;21.30;;;;;;;;;;4995387;28;20077;-53
2022/03/24 07:13:35;;;;;;;47.40;23.23;;;;;;;;;;4996031;28;20533;-55
2022/03/24 07:16:01;;;;;;;45.90;23.17;;;;;;;;;;4995691;28;20080;-56
2022/03/24 07:18:27;;;;;;;41.67;18.95;;;;;;;;;;4995330;28;20019;-53
2022/03/24 07:20:53;;;;;;;43.45;20.00;;;;;;;;;;4995891;28;20019;-55
2022/03/24 07:23:20;;;;;;;38.38;19.70;;;;;;;;;;4994593;28;20029;-52
2022/03/24 07:25:46;;;;;;;37.15;17.30;;;;;;;;;;4995550;28;20376;-55
2022/03/24 07:28:12;;;;;;;32.65;15.73;;;;;;;;;;4996040;28;20026;-56
2022/03/24 07:30:38;;;;;;;29.92;16.38;;;;;;;;;;4995971;28;20026;-54
2022/03/24 07:33:05;;;;;;;38.97;18.05;;;;;;;;;;4995572;28;20126;-52
2022/03/24 07:35:33;;;;;;;41.15;17.83;;;;;;;;;;4995662;28;20022;-54
2022/03/24 07:38:00;;;;;;;28.80;15.80;;;;;;;;;;4995323;28;20073;-53
2022/03/24 07:40:26;;;;;;;30.70;15.30;;;;;;;;;;4995236;28;20019;-56
2022/03/24 07:42:56;;;;;;;28.65;13.52;;;;;;;;;;4995269;28;20026;-50
2022/03/24 07:45:23;;;;;;;28.17;13.90;;;;;;;;;;4995186;28;20080;-53
2022/03/24 07:48:09;;;;;;;26.50;14.35;;;;;;;;;;4995047;28;20027;-57
2022/03/24 07:50:36;;;;;;;31.08;14.20;;;;;;;;;;4995049;28;20026;-54
2022/03/24 07:53:24;;;;;;;31.75;15.45;;;;;;;;;;4994549;28;20034;-55
2022/03/24 07:55:51;;;;;;;31.17;14.95;;;;;;;;;;4995517;28;20036;-56
2022/03/24 07:58:18;;;;;;;32.60;14.50;;;;;;;;;;4995196;28;20112;-50
2022/03/24 08:00:44;;;;;;;25.38;13.50;;;;;;;;;;4994454;28;20109;-54
2022/03/24 08:03:12;;;;;;;34.03;12.60;;;;;;;;;;4995552;28;20117;-51
2022/03/24 08:05:38;;;;;;;31.35;14.10;;;;;;;;;;4994727;28;20482;-50
2022/03/24 08:08:04;;;;;;;24.73;12.88;;;;;;;;;;4994685;28;20030;-55
2022/03/24 08:10:30;;;;;;;28.33;14.15;;;;;;;;;;4994902;28;20030;-52
2022/03/24 08:12:57;;;;;;;31.77;14.27;;;;;;;;;;4994566;28;20042;-52
2022/03/24 08:15:23;;;;;;;36.75;14.30;;;;;;;;;;4994634;28;20029;-53
2022/03/24 08:17:49;;;;;;;36.03;13.93;;;;;;;;;;4994761;28;20489;-53
2022/03/24 08:20:15;;;;;;;27.98;12.52;;;;;;;;;;4994741;28;20019;-49
2022/03/24 08:22:41;;;;;;;23.95;12.65;;;;;;;;;;4994806;28;20034;-50
2022/03/24 08:25:11;;;;;;;28.05;13.80;;;;;;;;;;4994796;28;20026;-52
2022/03/24 08:27:37;;;;;;;29.80;14.75;;;;;;;;;;4994080;28;20030;-52
2022/03/24 08:30:04;;;;;;;35.88;13.43;;;;;;;;;;4994399;28;20357;-52
2022/03/24 08:32:30;;;;;;;31.10;11.73;;;;;;;;;;4995152;28;20042;-49
2022/03/24 08:34:56;;;;;;;24.92;12.48;;;;;;;;;;4994407;28;20026;-53
2022/03/24 08:37:23;;;;;;;26.70;12.75;;;;;;;;;;4994316;28;20050;-53
2022/03/24 08:39:49;;;;;;;28.95;12.25;;;;;;;;;;4994240;28;20030;-54
2022/03/24 08:42:15;;;;;;;30.50;13.50;;;;;;;;;;4994148;28;20452;-49
2022/03/24 08:44:41;;;;;;;24.70;13.25;;;;;;;;;;4994659;28;20100;-54
2022/03/24 08:47:08;;;;;;;28.02;12.55;;;;;;;;;;4994146;28;20500;-52
2022/03/24 08:49:34;;;;;;;23.48;12.65;;;;;;;;;;4993837;28;20030;-57
2022/03/24 08:52:00;;;;;;;26.65;13.75;;;;;;;;;;4994208;28;20034;-54
2022/03/24 08:54:26;;;;;;;25.00;13.45;;;;;;;;;;4994182;28;20022;-54
2022/03/24 08:56:52;;;;;;;34.10;14.57;;;;;;;;;;4992497;28;20066;-51
2022/03/24 08:59:18;;;;;;;31.92;13.88;;;;;;;;;;4994215;28;20027;-52
2022/03/24 09:01:45;;;;;;;23.15;12.68;;;;;;;;;;4993694;28;20018;-51
2022/03/24 09:04:11;;;;;;;26.70;13.43;;;;;;;;;;4994231;28;20033;-51
2022/03/24 09:06:38;;;;;;;28.52;14.65;;;;;;;;;;4994208;28;20030;-50
2022/03/24 09:09:04;;;;;;;27.15;13.38;;;;;;;;;;4994073;28;20534;-49
2022/03/24 09:11:31;;;;;;;23.85;13.65;;;;;;;;;;4992871;28;20387;-51
2022/03/24 09:13:57;;;;;;;33.05;14.80;;;;;;;;;;4996693;28;20027;-49
2022/03/24 09:16:23;;;;;;;21.98;13.05;;;;;;;;;;4997886;28;20026;-52
2022/03/24 09:18:49;;;;;;;26.83;12.07;;;;;;;;;;4997907;28;20023;-50
2022/03/24 09:21:19;;;;;;;28.60;14.07;;;;;;;;;;4998140;28;20070;-51
2022/03/24 09:23:46;;;;;;;29.05;13.65;;;;;;;;;;4997297;28;20034;-52
2022/03/24 09:26:13;;;;;;;28.88;13.05;;;;;;;;;;4996546;28;20019;-52
2022/03/24 09:28:39;;;;;;;24.67;12.68;;;;;;;;;;4997673;28;20507;-50
2022/03/24 09:31:05;;;;;;;30.85;12.52;;;;;;;;;;4997613;28;20088;-51
2022/03/24 09:33:32;;;;;;;32.97;13.43;;;;;;;;;;4997831;28;20065;-56
2022/03/24 09:35:58;;;;;;;19.98;11.55;;;;;;;;;;4997844;28;20034;-54
2022/03/24 09:38:24;;;;;;;20.98;8.90;;;;;;;;;;4997223;28;20027;-51
2022/03/24 09:40:51;;;;;;;24.50;9.70;;;;;;;;;;4996106;28;20452;-49
2022/03/24 09:43:18;;;;;;;20.45;9.85;;;;;;;;;;4995226;28;20542;-51
2022/03/24 09:45:47;;;;;;;25.52;10.88;;;;;;;;;;4995973;28;20026;-54
2022/03/24 09:48:15;;;;;;;29.35;11.00;;;;;;;;;;4997215;28;20022;-52
2022/03/24 09:50:42;;;;;;;19.90;9.23;;;;;;;;;;4996682;28;20038;-51
2022/03/24 09:53:08;;;;;;;19.95;9.32;;;;;;;;;;4997100;28;20488;-53
2022/03/24 09:55:36;;;;;;;17.52;8.55;;;;;;;;;;4997271;28;20418;-53
2022/03/24 09:58:04;;;;;;;25.13;13.68;;;;;;;;;;4997404;28;20049;-53
2022/03/24 10:00:30;;;;;;;22.30;7.72;;;;;;;;;;4997286;28;20033;-54
2022/03/24 10:03:29;;;;;;;15.02;7.05;;;;;;;;;;4997638;28;20089;-55
2022/03/24 10:06:02;;;;;;;19.20;8.07;;;;;;;;;;4953761;28;20042;-51
2022/03/24 10:08:30;;;;;;;17.73;7.85;;;;;;;;;;4997079;28;20022;-51
2022/03/24 10:11:03;;;;;;;16.10;6.13;;;;;;;;;;4996846;28;20026;-54
2022/03/24 10:13:45;;;;;;;21.20;6.35;;;;;;;;;;4996758;28;20379;-53
2022/03/24 10:16:12;;;;;;;17.67;6.68;;;;;;;;;;4997059;28;20018;-55
2022/03/24 10:18:56;;;;;;;17.90;7.70;;;;;;;;;;4996364;28;20077;-56
2022/03/24 10:21:23;;;;;;;12.70;6.03;;;;;;;;;;4997466;28;20034;-54
2022/03/24 10:23:49;;;;;;;16.20;5.90;;;;;;;;;;4996612;28;20371;-50
2022/03/24 10:26:15;;;;;;;14.93;6.90;;;;;;;;;;4996374;28;20084;-51
2022/03/24 10:28:57;;;;;;;17.45;6.20;;;;;;;;;;4996623;28;20022;-53
2022/03/24 10:31:33;;;;;;;13.63;5.82;;;;;;;;;;4996156;28;20029;-50
2022/03/24 10:33:59;;;;;;;11.50;6.35;;;;;;;;;;4996468;28;20089;-55
2022/03/24 10:36:26;;;;;;;16.17;6.97;;;;;;;;;;4996332;28;20064;-53
2022/03/24 10:38:59;;;;;;;14.82;5.70;;;;;;;;;;4996648;28;20018;-55
2022/03/24 10:41:27;;;;;;;16.05;6.05;;;;;;;;;;4996238;28;20029;-52
2022/03/24 10:43:54;;;;;;;10.90;5.93;;;;;;;;;;4996332;28;20026;-55
2022/03/24 10:46:22;;;;;;;11.40;5.70;;;;;;;;;;4996573;28;20031;-55
2022/03/24 10:48:49;;;;;;;10.93;5.57;;;;;;;;;;4996039;28;20032;-57
2022/03/24 10:51:25;;;;;;;12.82;5.80;;;;;;;;;;4996613;28;20026;-55
2022/03/24 10:53:51;;;;;;;12.35;5.75;;;;;;;;;;4995874;28;20041;-51
2022/03/24 10:56:21;;;;;;;12.40;5.35;;;;;;;;;;4995945;28;20033;-51
2022/03/24 10:58:53;;;;;;;9.20;5.35;;;;;;;;;;4996587;28;20023;-52
2022/03/24 11:01:20;;;;;;;10.57;6.25;;;;;;;;;;4996215;28;20049;-51
2022/03/24 11:03:46;;;;;;;8.82;5.25;;;;;;;;;;4995988;28;20064;-53
2022/03/24 11:06:19;;;;;;;10.73;5.47;;;;;;;;;;4995771;28;20109;-56
2022/03/24 11:08:51;;;;;;;11.65;6.10;;;;;;;;;;4995959;28;20086;-55
2022/03/24 11:11:17;;;;;;;11.30;5.35;;;;;;;;;;4996319;28;20019;-54
2022/03/24 11:13:45;;;;;;;15.75;5.65;;;;;;;;;;4995839;28;20089;-53
2022/03/24 11:16:11;;;;;;;9.60;5.03;;;;;;;;;;4995681;28;20037;-58
2022/03/24 11:18:38;;;;;;;11.38;5.28;;;;;;;;;;4995993;28;20027;-52
2022/03/24 11:21:09;;;;;;;12.45;6.18;;;;;;;;;;4995810;28;20018;-49
2022/03/24 11:23:39;;;;;;;12.02;5.57;;;;;;;;;;4995303;28;20077;-55
2022/03/24 11:26:05;;;;;;;8.98;5.05;;;;;;;;;;4995734;28;20034;-55
2022/03/24 11:28:36;;;;;;;15.32;5.65;;;;;;;;;;4996100;28;20456;-53
2022/03/24 11:31:04;;;;;;;15.15;5.65;;;;;;;;;;4995835;28;20098;-51
2022/03/24 11:33:31;;;;;;;9.88;5.03;;;;;;;;;;4995544;28;20034;-54
2022/03/24 11:35:57;;;;;;;9.52;5.10;;;;;;;;;;4994622;28;20042;-55
2022/03/24 11:38:23;;;;;;;9.70;5.22;;;;;;;;;;4995824;28;20490;-54
2022/03/24 11:40:49;;;;;;;9.82;5.60;;;;;;;;;;4995792;28;20038;-55
2022/03/24 11:43:22;;;;;;;7.47;4.60;;;;;;;;;;4995181;28;20058;-51
2022/03/24 11:45:54;;;;;;;10.93;4.90;;;;;;;;;;4996233;28;20107;-53
2022/03/24 11:48:31;;;;;;;8.93;5.28;;;;;;;;;;4995558;28;20031;-58
2022/03/24 11:50:57;;;;;;;9.50;5.25;;;;;;;;;;4995298;28;20464;-56
2022/03/24 11:53:30;;;;;;;11.52;6.18;;;;;;;;;;4995249;28;20034;-54
2022/03/24 11:56:00;;;;;;;9.73;5.45;;;;;;;;;;4994942;28;20022;-51
2022/03/24 11:58:27;;;;;;;8.88;5.38;;;;;;;;;;4994687;28;20061;-53
2022/03/24 12:00:53;;;;;;;12.75;4.50;;;;;;;;;;4995161;28;20022;-52
2022/03/24 12:03:39;;;;;;;7.18;4.53;;;;;;;;;;4996030;28;20411;-53
2022/03/24 12:06:06;;;;;;;12.80;5.45;;;;;;;;;;4994830;28;20030;-52
2022/03/24 12:08:43;;;;;;;9.55;4.85;;;;;;;;;;4995108;28;20050;-51
2022/03/24 12:11:28;;;;;;;8.68;5.15;;;;;;;;;;4994485;28;20109;-53
2022/03/24 12:13:57;;;;;;;32.15;5.38;;;;;;;;;;4994670;28;20117;-50
2022/03/24 12:16:25;;;;;;;7.93;5.07;;;;;;;;;;4994966;28;20022;-53
2022/03/24 12:18:52;;;;;;;7.18;4.50;;;;;;;;;;4994282;28;20023;-56
2022/03/24 12:21:22;;;;;;;9.85;5.43;;;;;;;;;;4994828;28;20022;-54
2022/03/24 12:24:09;;;;;;;13.55;5.15;;;;;;;;;;4994762;28;20112;-55
2022/03/24 12:26:39;;;;;;;11.90;5.72;;;;;;;;;;4994174;28;20027;-55
2022/03/24 12:29:05;;;;;;;;;;;;;;;;;;4995163;28;20034;-54
2022/03/24 12:31:31;;;;;;;8.65;5.78;;;;;;;;;;4994430;28;19977;-55
2022/03/24 12:34:13;;;;;;;11.25;6.03;;;;;;;;;;4994569;28;20092;-56
2022/03/24 12:36:40;;;;;;;9.25;5.15;;;;;;;;;;4994677;28;20100;-53
2022/03/24 12:39:08;;;;;;;8.20;5.40;;;;;;;;;;4994188;28;20034;-53
2022/03/24 12:41:35;;;;;;;11.88;6.00;;;;;;;;;;4994418;28;20495;-54
2022/03/24 12:44:03;;;;;;;13.32;6.38;;;;;;;;;;4994441;28;20041;-57
2022/03/24 12:46:33;;;;;;;13.55;6.82;;;;;;;;;;4994102;28;20014;-56
2022/03/24 12:49:06;;;;;;;10.38;6.03;;;;;;;;;;4993519;28;20053;-53
2022/03/24 12:51:32;;;;;;;12.57;4.88;;;;;;;;;;4994505;28;20040;-54
2022/03/24 12:54:16;;;;;;;7.50;5.30;;;;;;;;;;4994157;28;20031;-56
2022/03/24 12:56:43;;;;;;;9.57;6.57;;;;;;;;;;4994425;28;20065;-55
2022/03/24 12:59:12;;;;;;;11.32;5.70;;;;;;;;;;4994820;28;20046;-51
2022/03/24 13:01:39;;;;;;;11.35;6.18;;;;;;;;;;4993985;28;20037;-55
2022/03/24 13:04:09;;;;;;;9.93;5.32;;;;;;;;;;4994326;28;20022;-58
2022/03/24 13:06:35;;;;;;;11.80;6.13;;;;;;;;;;4993988;28;20109;-57
2022/03/24 13:09:10;;;;;;;8.90;5.18;;;;;;;;;;4993983;28;20472;-54
2022/03/24 13:11:49;;;;;;;9.82;4.93;;;;;;;;;;4994188;28;20054;-53
2022/03/24 13:14:19;;;;;;;10.63;5.88;;;;;;;;;;4993524;28;20038;-51
2022/03/24 13:16:58;;;;;;;10.05;5.10;;;;;;;;;;4994887;28;20419;-54
2022/03/24 13:19:25;;;;;;;10.35;5.65;;;;;;;;;;4994192;28;20034;-52
2022/03/24 13:21:51;;;;;;;7.93;4.85;;;;;;;;;;4993929;28;20061;-55
2022/03/24 13:24:21;;;;;;;7.63;5.80;;;;;;;;;;4994055;28;20353;-52
2022/03/24 13:27:00;;;;;;;12.25;5.72;;;;;;;;;;4994030;28;20095;-55
2022/03/24 13:29:40;;;;;;;8.65;4.95;;;;;;;;;;4993419;28;20117;-57
2022/03/24 13:32:09;;;;;;;15.88;5.97;;;;;;;;;;4994295;28;20062;-54
2022/03/24 13:34:36;;;;;;;12.45;5.72;;;;;;;;;;4993362;28;20472;-52
2022/03/24 13:37:10;;;;;;;11.40;5.13;;;;;;;;;;4993902;28;20546;-51
2022/03/24 13:39:37;;;;;;;6.40;4.60;;;;;;;;;;4993900;28;20073;-53
2022/03/24 13:42:07;;;;;;;9.85;5.32;;;;;;;;;;4993496;28;20061;-55
2022/03/24 13:44:35;;;;;;;19.40;6.05;;;;;;;;;;4994152;28;20161;-53
2022/03/24 13:47:01;;;;;;;10.02;5.72;;;;;;;;;;4993639;28;20088;-54
2022/03/24 13:49:28;;;;;;;12.27;6.15;;;;;;;;;;4993741;28;20054;-48
2022/03/24 13:51:54;;;;;;;11.15;5.35;;;;;;;;;;4993406;28;20542;-50
2022/03/24 13:54:21;;;;;;;7.95;5.53;;;;;;;;;;4993803;28;20034;-56
2022/03/24 13:56:47;;;;;;;11.35;5.88;;;;;;;;;;4993635;28;20034;-54
2022/03/24 13:59:13;;;;;;;8.85;5.95;;;;;;;;;;4995170;28;20433;-55
2022/03/24 14:01:39;;;;;;;12.35;5.47;;;;;;;;;;4997531;28;20026;-54
2022/03/24 14:04:18;;;;;;;12.35;6.07;;;;;;;;;;4997031;28;20031;-55
2022/03/24 14:07:03;;;;;;;10.23;5.78;;;;;;;;;;4997326;28;20026;-51
2022/03/24 14:09:29;;;;;;;11.57;5.80;;;;;;;;;;4997201;28;20452;-56
2022/03/24 14:12:08;;;;;;;16.90;7.47;;;;;;;;;;4997226;28;20023;-53
2022/03/24 14:14:34;;;;;;;16.73;6.32;;;;;;;;;;4997488;28;20053;-53
2022/03/24 14:17:01;;;;;;;10.85;5.72;;;;;;;;;;4996786;28;20037;-53
2022/03/24 14:19:27;;;;;;;11.93;5.95;;;;;;;;;;4996754;28;20502;-57
2022/03/24 14:22:00;;;;;;;14.30;6.50;;;;;;;;;;4996997;28;20464;-54
2022/03/24 14:24:29;;;;;;;14.10;6.03;;;;;;;;;;4996718;28;20394;-52
2022/03/24 14:27:10;;;;;;;10.60;6.32;;;;;;;;;;4996985;28;20093;-55
2022/03/24 14:29:38;;;;;;;10.00;5.50;;;;;;;;;;4997681;28;20112;-55